sensor_id;sensor_type;location;lat;lon;timestamp;P1;durP1;ratioP1;P2;durP2;ratioP2
77705;SDS011;66874;45.274;5.880;2023-04-16T02:01:44;3.17;;;2.50;;
77705;SDS011;66874;45.274;5.880;2023-04-16T02:04:10;7.60;;;2.40;;
77705;SDS011;66874;45.274;5.880;2023-04-16T02:06:36;4.53;;;2.58;;
77705;SDS011;66874;45.274;5.880;2023-04-16T02:09:03;4.70;;;2.85;;
77705;SDS011;66874;45.274;5.880;2023-04-16T02:11:28;8.18;;;3.83;;
77705;SDS011;66874;45.274;5.880;2023-04-16T02:13:53;3.85;;;2.70;;
77705;SDS011;66874;45.274;5.880;2023-04-16T02:16:19;6.20;;;2.83;;
77705;SDS011;66874;45.274;5.880;2023-04-16T02:18:44;5.68;;;2.63;;
77705;SDS011;66874;45.274;5.880;2023-04-16T02:21:09;4.53;;;2.85;;
77705;SDS011;66874;45.274;5.880;2023-04-16T02:23:35;4.30;;;2.67;;
77705;SDS011;66874;45.274;5.880;2023-04-16T02:26:01;3.92;;;3.03;;
77705;SDS011;66874;45.274;5.880;2023-04-16T02:28:27;4.28;;;2.42;;
77705;SDS011;66874;45.274;5.880;2023-04-16T05:31:30;5.80;;;3.72;;
77705;SDS011;66874;45.274;5.880;2023-04-16T05:33:55;7.35;;;4.60;;
77705;SDS011;66874;45.274;5.880;2023-04-16T05:36:20;6.85;;;4.47;;
77705;SDS011;66874;45.274;5.880;2023-04-16T05:38:46;8.55;;;4.80;;
77705;SDS011;66874;45.274;5.880;2023-04-16T05:41:11;8.20;;;5.03;;
77705;SDS011;66874;45.274;5.880;2023-04-16T05:43:37;8.85;;;5.00;;
77705;SDS011;66874;45.274;5.880;2023-04-16T05:46:02;10.57;;;5.50;;
77705;SDS011;66874;45.274;5.880;2023-04-16T05:48:28;7.53;;;4.82;;
77705;SDS011;66874;45.274;5.880;2023-04-16T05:50:53;8.80;;;5.30;;
77705;SDS011;66874;45.274;5.880;2023-04-16T05:53:18;10.30;;;5.65;;
77705;SDS011;66874;45.274;5.880;2023-04-16T05:55:44;10.93;;;5.82;;
77705;SDS011;66874;45.274;5.880;2023-04-16T05:58:10;9.13;;;5.30;;
77705;SDS011;66874;45.274;5.880;2023-04-16T06:00:36;12.10;;;6.45;;
77705;SDS011;66874;45.274;5.880;2023-04-16T06:03:01;9.02;;;5.07;;
77705;SDS011;66874;45.274;5.880;2023-04-16T06:05:27;9.90;;;5.65;;
77705;SDS011;66874;45.274;5.880;2023-04-16T06:07:53;9.35;;;5.72;;
77705;SDS011;66874;45.274;5.880;2023-04-16T06:10:18;9.35;;;6.15;;
77705;SDS011;66874;45.274;5.880;2023-04-16T06:12:43;9.35;;;5.82;;
77705;SDS011;66874;45.274;5.880;2023-04-16T06:15:09;8.48;;;5.95;;
77705;SDS011;66874;45.274;5.880;2023-04-16T06:17:35;9.73;;;6.03;;
77705;SDS011;66874;45.274;5.880;2023-04-16T06:20:00;8.73;;;6.15;;
77705;SDS011;66874;45.274;5.880;2023-04-16T06:22:25;10.70;;;6.00;;
77705;SDS011;66874;45.274;5.880;2023-04-16T06:24:51;8.82;;;6.07;;
77705;SDS011;66874;45.274;5.880;2023-04-16T06:27:17;10.68;;;6.50;;
77705;SDS011;66874;45.274;5.880;2023-04-16T06:29:42;11.73;;;6.18;;
77705;SDS011;66874;45.274;5.880;2023-04-16T06:32:08;10.43;;;5.75;;
77705;SDS011;66874;45.274;5.880;2023-04-16T06:34:33;9.55;;;5.57;;
77705;SDS011;66874;45.274;5.880;2023-04-16T06:36:59;9.27;;;5.70;;
77705;SDS011;66874;45.274;5.880;2023-04-16T06:39:25;9.50;;;5.97;;
77705;SDS011;66874;45.274;5.880;2023-04-16T06:41:50;9.00;;;5.97;;
77705;SDS011;66874;45.274;5.880;2023-04-16T06:44:16;11.27;;;5.75;;
77705;SDS011;66874;45.274;5.880;2023-04-16T06:46:41;9.50;;;6.10;;
77705;SDS011;66874;45.274;5.880;2023-04-16T06:49:06;10.13;;;5.57;;
77705;SDS011;66874;45.274;5.880;2023-04-16T06:51:32;8.90;;;6.25;;
77705;SDS011;66874;45.274;5.880;2023-04-16T06:53:58;11.68;;;5.72;;
77705;SDS011;66874;45.274;5.880;2023-04-16T06:56:23;9.25;;;5.80;;
77705;SDS011;66874;45.274;5.880;2023-04-16T06:58:49;8.35;;;5.63;;
77705;SDS011;66874;45.274;5.880;2023-04-16T07:01:15;7.55;;;5.43;;
77705;SDS011;66874;45.274;5.880;2023-04-16T07:03:41;8.25;;;6.15;;
77705;SDS011;66874;45.274;5.880;2023-04-16T07:06:06;8.40;;;6.45;;
77705;SDS011;66874;45.274;5.880;2023-04-16T07:08:32;9.05;;;6.60;;
77705;SDS011;66874;45.274;5.880;2023-04-16T07:10:57;10.88;;;6.18;;
77705;SDS011;66874;45.274;5.880;2023-04-16T07:13:23;7.55;;;5.53;;
77705;SDS011;66874;45.274;5.880;2023-04-16T07:15:48;9.10;;;5.60;;
77705;SDS011;66874;45.274;5.880;2023-04-16T07:18:14;11.75;;;6.50;;
77705;SDS011;66874;45.274;5.880;2023-04-16T07:20:40;8.07;;;5.65;;
77705;SDS011;66874;45.274;5.880;2023-04-16T07:23:05;10.77;;;6.65;;
77705;SDS011;66874;45.274;5.880;2023-04-16T07:25:31;8.30;;;5.85;;
77705;SDS011;66874;45.274;5.880;2023-04-16T07:27:56;10.18;;;5.82;;
77705;SDS011;66874;45.274;5.880;2023-04-16T07:30:22;10.70;;;5.47;;
77705;SDS011;66874;45.274;5.880;2023-04-16T07:32:47;8.60;;;5.88;;
77705;SDS011;66874;45.274;5.880;2023-04-16T07:35:12;6.85;;;5.22;;
77705;SDS011;66874;45.274;5.880;2023-04-16T07:37:38;7.45;;;5.18;;
77705;SDS011;66874;45.274;5.880;2023-04-16T07:40:03;7.07;;;4.60;;
77705;SDS011;66874;45.274;5.880;2023-04-16T07:42:29;8.48;;;4.90;;
77705;SDS011;66874;45.274;5.880;2023-04-16T07:44:55;8.45;;;5.43;;
77705;SDS011;66874;45.274;5.880;2023-04-16T07:47:20;6.00;;;4.57;;
77705;SDS011;66874;45.274;5.880;2023-04-16T07:49:47;6.50;;;4.72;;
77705;SDS011;66874;45.274;5.880;2023-04-16T07:52:13;6.28;;;3.92;;
77705;SDS011;66874;45.274;5.880;2023-04-16T07:54:38;8.35;;;4.35;;
77705;SDS011;66874;45.274;5.880;2023-04-16T07:57:04;6.38;;;4.20;;
77705;SDS011;66874;45.274;5.880;2023-04-16T07:59:29;4.40;;;3.50;;
77705;SDS011;66874;45.274;5.880;2023-04-16T08:01:55;4.50;;;3.50;;
77705;SDS011;66874;45.274;5.880;2023-04-16T08:04:20;7.00;;;5.07;;
77705;SDS011;66874;45.274;5.880;2023-04-16T08:06:49;5.60;;;4.47;;
77705;SDS011;66874;45.274;5.880;2023-04-16T08:09:15;9.15;;;5.88;;
77705;SDS011;66874;45.274;5.880;2023-04-16T08:11:41;5.63;;;3.83;;
77705;SDS011;66874;45.274;5.880;2023-04-16T08:14:07;5.00;;;4.00;;
77705;SDS011;66874;45.274;5.880;2023-04-16T08:16:32;8.45;;;7.05;;
77705;SDS011;66874;45.274;5.880;2023-04-16T08:18:58;7.25;;;5.38;;
77705;SDS011;66874;45.274;5.880;2023-04-16T08:21:25;6.30;;;4.85;;
77705;SDS011;66874;45.274;5.880;2023-04-16T08:23:52;5.65;;;4.72;;
77705;SDS011;66874;45.274;5.880;2023-04-16T08:26:17;5.35;;;3.50;;
77705;SDS011;66874;45.274;5.880;2023-04-16T08:28:43;5.53;;;3.60;;
77705;SDS011;66874;45.274;5.880;2023-04-16T08:31:08;4.55;;;3.38;;
77705;SDS011;66874;45.274;5.880;2023-04-16T08:33:34;5.05;;;3.40;;
77705;SDS011;66874;45.274;5.880;2023-04-16T08:35:59;5.70;;;3.83;;
77705;SDS011;66874;45.274;5.880;2023-04-16T08:38:24;5.45;;;4.10;;
77705;SDS011;66874;45.274;5.880;2023-04-16T08:40:50;6.15;;;3.53;;
77705;SDS011;66874;45.274;5.880;2023-04-16T08:43:16;5.50;;;3.35;;
77705;SDS011;66874;45.274;5.880;2023-04-16T08:45:43;6.25;;;3.65;;
77705;SDS011;66874;45.274;5.880;2023-04-16T08:48:11;6.97;;;3.90;;
77705;SDS011;66874;45.274;5.880;2023-04-16T08:50:37;4.30;;;3.00;;
77705;SDS011;66874;45.274;5.880;2023-04-16T08:53:05;4.53;;;3.30;;
77705;SDS011;66874;45.274;5.880;2023-04-16T08:55:47;4.82;;;3.20;;
77705;SDS011;66874;45.274;5.880;2023-04-16T08:58:22;7.90;;;3.80;;
77705;SDS011;66874;45.274;5.880;2023-04-16T09:00:53;7.10;;;4.38;;
77705;SDS011;66874;45.274;5.880;2023-04-16T09:03:19;5.22;;;3.50;;
77705;SDS011;66874;45.274;5.880;2023-04-16T09:05:46;4.20;;;2.80;;
77705;SDS011;66874;45.274;5.880;2023-04-16T09:08:13;4.05;;;3.15;;
77705;SDS011;66874;45.274;5.880;2023-04-16T09:10:39;4.05;;;2.80;;
77705;SDS011;66874;45.274;5.880;2023-04-16T09:13:04;3.50;;;2.97;;
77705;SDS011;66874;45.274;5.880;2023-04-16T09:15:30;4.75;;;3.00;;
77705;SDS011;66874;45.274;5.880;2023-04-16T09:17:56;4.30;;;2.90;;
77705;SDS011;66874;45.274;5.880;2023-04-16T09:20:21;3.65;;;3.17;;
77705;SDS011;66874;45.274;5.880;2023-04-16T09:22:47;3.95;;;2.85;;
77705;SDS011;66874;45.274;5.880;2023-04-16T09:25:12;3.42;;;2.70;;
77705;SDS011;66874;45.274;5.880;2023-04-16T09:27:38;3.67;;;3.00;;
77705;SDS011;66874;45.274;5.880;2023-04-16T09:30:23;4.72;;;3.58;;
77705;SDS011;66874;45.274;5.880;2023-04-16T09:32:50;5.63;;;3.38;;
77705;SDS011;66874;45.274;5.880;2023-04-16T09:35:17;8.73;;;3.72;;
77705;SDS011;66874;45.274;5.880;2023-04-16T09:37:46;5.32;;;3.90;;
77705;SDS011;66874;45.274;5.880;2023-04-16T09:40:22;4.43;;;2.97;;
77705;SDS011;66874;45.274;5.880;2023-04-16T09:42:50;4.70;;;3.28;;
77705;SDS011;66874;45.274;5.880;2023-04-16T09:45:16;4.25;;;3.30;;
77705;SDS011;66874;45.274;5.880;2023-04-16T09:47:42;4.97;;;3.38;;
77705;SDS011;66874;45.274;5.880;2023-04-16T09:50:09;4.68;;;3.17;;
77705;SDS011;66874;45.274;5.880;2023-04-16T09:52:41;3.90;;;3.00;;
77705;SDS011;66874;45.274;5.880;2023-04-16T09:55:08;5.93;;;3.33;;
77705;SDS011;66874;45.274;5.880;2023-04-16T09:57:35;5.78;;;2.97;;
77705;SDS011;66874;45.274;5.880;2023-04-16T10:00:03;3.35;;;2.78;;
77705;SDS011;66874;45.274;5.880;2023-04-16T10:02:29;4.47;;;3.22;;
77705;SDS011;66874;45.274;5.880;2023-04-16T10:04:55;3.88;;;3.30;;
77705;SDS011;66874;45.274;5.880;2023-04-16T10:07:27;3.78;;;2.45;;
77705;SDS011;66874;45.274;5.880;2023-04-16T10:09:53;4.57;;;3.22;;
77705;SDS011;66874;45.274;5.880;2023-04-16T10:12:20;5.35;;;2.83;;
77705;SDS011;66874;45.274;5.880;2023-04-16T10:14:46;3.80;;;2.85;;
77705;SDS011;66874;45.274;5.880;2023-04-16T10:17:11;3.50;;;2.78;;
77705;SDS011;66874;45.274;5.880;2023-04-16T10:19:37;3.38;;;2.40;;
77705;SDS011;66874;45.274;5.880;2023-04-16T10:22:03;7.00;;;3.05;;
77705;SDS011;66874;45.274;5.880;2023-04-16T10:24:29;3.97;;;2.92;;
77705;SDS011;66874;45.274;5.880;2023-04-16T10:26:56;4.45;;;2.97;;
77705;SDS011;66874;45.274;5.880;2023-04-16T10:29:22;5.07;;;2.67;;
77705;SDS011;66874;45.274;5.880;2023-04-16T10:31:49;4.32;;;3.20;;
77705;SDS011;66874;45.274;5.880;2023-04-16T10:34:15;5.35;;;3.20;;
77705;SDS011;66874;45.274;5.880;2023-04-16T10:36:45;4.70;;;3.60;;
77705;SDS011;66874;45.274;5.880;2023-04-16T10:39:12;4.57;;;2.50;;
77705;SDS011;66874;45.274;5.880;2023-04-16T10:41:42;3.47;;;2.95;;
77705;SDS011;66874;45.274;5.880;2023-04-16T10:44:09;4.40;;;3.20;;
77705;SDS011;66874;45.274;5.880;2023-04-16T10:46:38;5.63;;;3.05;;
77705;SDS011;66874;45.274;5.880;2023-04-16T10:49:15;4.05;;;3.10;;
77705;SDS011;66874;45.274;5.880;2023-04-16T10:51:54;7.07;;;2.78;;
77705;SDS011;66874;45.274;5.880;2023-04-16T10:56:55;9.35;;;6.35;;
77705;SDS011;66874;45.274;5.880;2023-04-16T10:59:22;4.55;;;3.30;;
77705;SDS011;66874;45.274;5.880;2023-04-16T11:01:49;3.25;;;2.60;;
77705;SDS011;66874;45.274;5.880;2023-04-16T11:15:02;4.15;;;2.60;;
77705;SDS011;66874;45.274;5.880;2023-04-16T11:20:26;2.83;;;2.00;;
77705;SDS011;66874;45.274;5.880;2023-04-16T11:22:52;5.30;;;2.97;;
77705;SDS011;66874;45.274;5.880;2023-04-16T11:25:23;3.10;;;2.28;;
77705;SDS011;66874;45.274;5.880;2023-04-16T11:27:50;4.82;;;2.20;;
77705;SDS011;66874;45.274;5.880;2023-04-16T11:30:16;4.97;;;2.70;;
77705;SDS011;66874;45.274;5.880;2023-04-16T11:32:43;3.85;;;2.25;;
77705;SDS011;66874;45.274;5.880;2023-04-16T11:35:13;4.50;;;2.20;;
77705;SDS011;66874;45.274;5.880;2023-04-16T11:37:40;5.28;;;2.30;;
77705;SDS011;66874;45.274;5.880;2023-04-16T11:40:06;3.15;;;2.30;;
77705;SDS011;66874;45.274;5.880;2023-04-16T11:42:33;4.38;;;2.03;;
77705;SDS011;66874;45.274;5.880;2023-04-16T11:45:04;2.50;;;2.00;;
77705;SDS011;66874;45.274;5.880;2023-04-16T11:47:31;2.08;;;1.83;;
77705;SDS011;66874;45.274;5.880;2023-04-16T11:52:44;3.45;;;2.08;;
77705;SDS011;66874;45.274;5.880;2023-04-16T11:55:10;2.05;;;1.70;;
77705;SDS011;66874;45.274;5.880;2023-04-16T11:57:35;2.65;;;1.88;;
77705;SDS011;66874;45.274;5.880;2023-04-16T12:00:02;2.70;;;2.25;;
77705;SDS011;66874;45.274;5.880;2023-04-16T12:02:36;3.03;;;1.85;;
77705;SDS011;66874;45.274;5.880;2023-04-16T12:05:04;2.80;;;1.80;;
77705;SDS011;66874;45.274;5.880;2023-04-16T12:07:31;6.65;;;1.98;;
77705;SDS011;66874;45.274;5.880;2023-04-16T12:10:08;4.20;;;1.75;;
77705;SDS011;66874;45.274;5.880;2023-04-16T12:12:34;2.17;;;1.50;;
77705;SDS011;66874;45.274;5.880;2023-04-16T12:15:00;3.10;;;1.80;;
77705;SDS011;66874;45.274;5.880;2023-04-16T12:17:28;2.00;;;1.50;;
77705;SDS011;66874;45.274;5.880;2023-04-16T12:19:55;2.33;;;2.13;;
77705;SDS011;66874;45.274;5.880;2023-04-16T12:22:29;2.50;;;1.77;;
77705;SDS011;66874;45.274;5.880;2023-04-16T12:25:01;2.47;;;1.70;;
77705;SDS011;66874;45.274;5.880;2023-04-16T12:27:50;5.15;;;2.22;;
77705;SDS011;66874;45.274;5.880;2023-04-16T12:30:16;2.30;;;2.05;;
77705;SDS011;66874;45.274;5.880;2023-04-16T12:32:43;2.45;;;1.88;;
77705;SDS011;66874;45.274;5.880;2023-04-16T12:35:12;2.60;;;2.10;;
77705;SDS011;66874;45.274;5.880;2023-04-16T12:37:38;3.08;;;2.17;;
77705;SDS011;66874;45.274;5.880;2023-04-16T12:40:04;4.20;;;1.80;;
77705;SDS011;66874;45.274;5.880;2023-04-16T12:42:30;2.58;;;2.00;;
77705;SDS011;66874;45.274;5.880;2023-04-16T12:45:03;3.05;;;1.70;;
77705;SDS011;66874;45.274;5.880;2023-04-16T12:47:30;3.17;;;1.75;;
77705;SDS011;66874;45.274;5.880;2023-04-16T12:49:56;2.00;;;1.83;;
77705;SDS011;66874;45.274;5.880;2023-04-16T12:52:22;2.08;;;1.70;;
77705;SDS011;66874;45.274;5.880;2023-04-16T12:54:50;3.67;;;1.80;;
77705;SDS011;66874;45.274;5.880;2023-04-16T12:57:16;5.90;;;1.63;;
77705;SDS011;66874;45.274;5.880;2023-04-16T12:59:42;3.92;;;1.58;;
77705;SDS011;66874;45.274;5.880;2023-04-16T13:02:07;2.13;;;1.75;;
77705;SDS011;66874;45.274;5.880;2023-04-16T13:04:32;4.32;;;1.67;;
77705;SDS011;66874;45.274;5.880;2023-04-16T13:06:58;2.05;;;1.40;;
77705;SDS011;66874;45.274;5.880;2023-04-16T13:09:24;2.20;;;1.60;;
77705;SDS011;66874;45.274;5.880;2023-04-16T13:11:50;1.65;;;1.55;;
77705;SDS011;66874;45.274;5.880;2023-04-16T13:14:15;2.03;;;1.35;;
77705;SDS011;66874;45.274;5.880;2023-04-16T13:16:40;1.60;;;1.50;;
77705;SDS011;66874;45.274;5.880;2023-04-16T13:19:06;1.67;;;1.40;;
77705;SDS011;66874;45.274;5.880;2023-04-16T13:21:32;1.75;;;1.50;;
77705;SDS011;66874;45.274;5.880;2023-04-16T13:23:58;4.40;;;1.73;;
77705;SDS011;66874;45.274;5.880;2023-04-16T13:26:25;3.80;;;1.92;;
77705;SDS011;66874;45.274;5.880;2023-04-16T13:28:50;1.92;;;1.45;;
77705;SDS011;66874;45.274;5.880;2023-04-16T13:31:16;1.63;;;1.38;;
77705;SDS011;66874;45.274;5.880;2023-04-16T13:33:44;2.92;;;1.38;;
77705;SDS011;66874;45.274;5.880;2023-04-16T13:36:10;2.33;;;1.58;;
77705;SDS011;66874;45.274;5.880;2023-04-16T13:38:35;5.13;;;1.92;;
77705;SDS011;66874;45.274;5.880;2023-04-16T13:41:00;5.72;;;2.00;;
77705;SDS011;66874;45.274;5.880;2023-04-16T13:43:26;5.32;;;1.70;;
77705;SDS011;66874;45.274;5.880;2023-04-16T13:45:51;1.88;;;1.50;;
77705;SDS011;66874;45.274;5.880;2023-04-16T13:48:17;1.98;;;1.52;;
77705;SDS011;66874;45.274;5.880;2023-04-16T13:50:42;4.43;;;1.67;;
77705;SDS011;66874;45.274;5.880;2023-04-16T13:53:08;2.22;;;2.00;;
77705;SDS011;66874;45.274;5.880;2023-04-16T13:55:33;7.50;;;4.65;;
77705;SDS011;66874;45.274;5.880;2023-04-16T13:57:59;6.30;;;4.20;;
77705;SDS011;66874;45.274;5.880;2023-04-16T14:00:25;5.43;;;2.67;;
77705;SDS011;66874;45.274;5.880;2023-04-16T14:02:51;10.70;;;5.57;;
77705;SDS011;66874;45.274;5.880;2023-04-16T14:05:17;8.30;;;4.72;;
77705;SDS011;66874;45.274;5.880;2023-04-16T14:07:43;5.90;;;3.35;;
77705;SDS011;66874;45.274;5.880;2023-04-16T14:10:09;5.97;;;3.53;;
77705;SDS011;66874;45.274;5.880;2023-04-16T14:12:35;5.50;;;4.32;;
77705;SDS011;66874;45.274;5.880;2023-04-16T14:15:01;6.13;;;2.92;;
77705;SDS011;66874;45.274;5.880;2023-04-16T14:17:28;6.00;;;2.75;;
77705;SDS011;66874;45.274;5.880;2023-04-16T14:19:54;6.85;;;3.53;;
77705;SDS011;66874;45.274;5.880;2023-04-16T14:22:19;5.38;;;3.67;;
77705;SDS011;66874;45.274;5.880;2023-04-16T14:24:45;6.13;;;2.70;;
77705;SDS011;66874;45.274;5.880;2023-04-16T14:27:10;3.72;;;2.67;;
77705;SDS011;66874;45.274;5.880;2023-04-16T14:29:36;4.03;;;2.30;;
77705;SDS011;66874;45.274;5.880;2023-04-16T14:32:01;6.90;;;3.53;;
77705;SDS011;66874;45.274;5.880;2023-04-16T14:34:27;4.72;;;2.78;;
77705;SDS011;66874;45.274;5.880;2023-04-16T14:36:52;6.13;;;4.07;;
77705;SDS011;66874;45.274;5.880;2023-04-16T14:39:18;4.20;;;2.92;;
77705;SDS011;66874;45.274;5.880;2023-04-16T14:41:44;4.40;;;2.90;;
77705;SDS011;66874;45.274;5.880;2023-04-16T14:44:10;4.60;;;2.60;;
77705;SDS011;66874;45.274;5.880;2023-04-16T14:46:35;5.15;;;3.58;;
77705;SDS011;66874;45.274;5.880;2023-04-16T14:49:02;5.03;;;2.97;;
77705;SDS011;66874;45.274;5.880;2023-04-16T14:51:28;5.00;;;2.25;;
77705;SDS011;66874;45.274;5.880;2023-04-16T14:53:54;6.13;;;3.88;;
77705;SDS011;66874;45.274;5.880;2023-04-16T14:56:20;2.58;;;2.30;;
77705;SDS011;66874;45.274;5.880;2023-04-16T14:58:45;3.92;;;2.85;;
77705;SDS011;66874;45.274;5.880;2023-04-16T15:01:11;6.07;;;3.03;;
77705;SDS011;66874;45.274;5.880;2023-04-16T15:06:03;5.38;;;3.85;;
77705;SDS011;66874;45.274;5.880;2023-04-16T15:08:29;7.63;;;4.85;;
77705;SDS011;66874;45.274;5.880;2023-04-16T15:10:55;4.95;;;3.22;;
77705;SDS011;66874;45.274;5.880;2023-04-16T15:13:20;9.25;;;5.20;;
77705;SDS011;66874;45.274;5.880;2023-04-16T15:15:46;6.35;;;2.72;;
77705;SDS011;66874;45.274;5.880;2023-04-16T15:18:11;3.17;;;2.30;;
77705;SDS011;66874;45.274;5.880;2023-04-16T15:20:37;4.20;;;3.00;;
77705;SDS011;66874;45.274;5.880;2023-04-16T15:23:02;3.35;;;2.63;;
77705;SDS011;66874;45.274;5.880;2023-04-16T15:25:28;4.03;;;2.88;;
77705;SDS011;66874;45.274;5.880;2023-04-16T15:27:53;6.60;;;3.38;;
77705;SDS011;66874;45.274;5.880;2023-04-16T15:30:19;3.90;;;2.55;;
77705;SDS011;66874;45.274;5.880;2023-04-16T15:32:44;3.83;;;3.10;;
77705;SDS011;66874;45.274;5.880;2023-04-16T15:35:10;5.70;;;4.40;;
77705;SDS011;66874;45.274;5.880;2023-04-16T15:37:37;2.95;;;2.50;;
77705;SDS011;66874;45.274;5.880;2023-04-16T15:40:03;5.15;;;3.15;;
77705;SDS011;66874;45.274;5.880;2023-04-16T15:42:35;3.25;;;2.78;;
77705;SDS011;66874;45.274;5.880;2023-04-16T15:45:00;3.00;;;2.53;;
77705;SDS011;66874;45.274;5.880;2023-04-16T15:47:26;3.10;;;2.10;;
77705;SDS011;66874;45.274;5.880;2023-04-16T15:49:52;5.25;;;3.10;;
77705;SDS011;66874;45.274;5.880;2023-04-16T15:52:18;6.68;;;3.92;;
77705;SDS011;66874;45.274;5.880;2023-04-16T15:54:44;17.40;;;7.82;;
77705;SDS011;66874;45.274;5.880;2023-04-16T15:57:09;26.98;;;11.40;;
77705;SDS011;66874;45.274;5.880;2023-04-16T15:59:35;30.52;;;14.45;;
77705;SDS011;66874;45.274;5.880;2023-04-16T16:02:00;9.88;;;5.70;;
77705;SDS011;66874;45.274;5.880;2023-04-16T16:04:26;9.88;;;5.28;;
77705;SDS011;66874;45.274;5.880;2023-04-16T16:06:52;8.88;;;4.90;;
77705;SDS011;66874;45.274;5.880;2023-04-16T16:09:17;9.95;;;6.38;;
77705;SDS011;66874;45.274;5.880;2023-04-16T16:11:49;4.55;;;3.80;;
77705;SDS011;66874;45.274;5.880;2023-04-16T16:14:18;5.78;;;4.20;;
77705;SDS011;66874;45.274;5.880;2023-04-16T16:16:44;6.78;;;4.85;;
77705;SDS011;66874;45.274;5.880;2023-04-16T16:19:10;6.03;;;4.22;;
77705;SDS011;66874;45.274;5.880;2023-04-16T16:21:35;4.78;;;3.20;;
77705;SDS011;66874;45.274;5.880;2023-04-16T16:24:01;4.55;;;2.78;;
77705;SDS011;66874;45.274;5.880;2023-04-16T16:26:27;3.35;;;2.97;;
77705;SDS011;66874;45.274;5.880;2023-04-16T16:28:53;3.00;;;2.38;;
77705;SDS011;66874;45.274;5.880;2023-04-16T16:31:18;4.53;;;2.30;;
77705;SDS011;66874;45.274;5.880;2023-04-16T16:33:43;4.05;;;2.60;;
77705;SDS011;66874;45.274;5.880;2023-04-16T16:36:12;4.05;;;2.45;;
77705;SDS011;66874;45.274;5.880;2023-04-16T16:38:37;2.35;;;2.03;;
77705;SDS011;66874;45.274;5.880;2023-04-16T16:41:04;4.70;;;2.25;;
77705;SDS011;66874;45.274;5.880;2023-04-16T16:43:30;2.53;;;2.00;;
77705;SDS011;66874;45.274;5.880;2023-04-16T16:45:55;3.15;;;2.40;;
77705;SDS011;66874;45.274;5.880;2023-04-16T16:48:20;5.35;;;3.55;;
77705;SDS011;66874;45.274;5.880;2023-04-16T16:50:46;3.50;;;2.55;;
77705;SDS011;66874;45.274;5.880;2023-04-16T16:53:11;3.63;;;2.95;;
77705;SDS011;66874;45.274;5.880;2023-04-16T16:55:37;2.88;;;2.40;;
77705;SDS011;66874;45.274;5.880;2023-04-16T16:58:02;4.95;;;3.20;;
77705;SDS011;66874;45.274;5.880;2023-04-16T17:00:27;4.63;;;2.97;;
77705;SDS011;66874;45.274;5.880;2023-04-16T17:02:53;2.92;;;2.47;;
77705;SDS011;66874;45.274;5.880;2023-04-16T17:05:18;4.07;;;3.13;;
77705;SDS011;66874;45.274;5.880;2023-04-16T17:07:43;8.45;;;3.83;;
77705;SDS011;66874;45.274;5.880;2023-04-16T17:10:10;3.70;;;2.63;;
77705;SDS011;66874;45.274;5.880;2023-04-16T17:12:37;3.63;;;2.75;;
77705;SDS011;66874;45.274;5.880;2023-04-16T17:15:02;4.15;;;3.75;;
77705;SDS011;66874;45.274;5.880;2023-04-16T17:17:28;6.78;;;3.30;;
77705;SDS011;66874;45.274;5.880;2023-04-16T17:19:54;4.53;;;3.13;;
77705;SDS011;66874;45.274;5.880;2023-04-16T17:22:20;4.55;;;2.88;;
77705;SDS011;66874;45.274;5.880;2023-04-16T17:24:45;3.83;;;2.80;;
77705;SDS011;66874;45.274;5.880;2023-04-16T17:27:11;4.32;;;2.92;;
77705;SDS011;66874;45.274;5.880;2023-04-16T17:29:36;3.15;;;2.67;;
77705;SDS011;66874;45.274;5.880;2023-04-16T17:32:01;8.38;;;2.92;;
77705;SDS011;66874;45.274;5.880;2023-04-16T17:34:27;3.28;;;2.83;;
77705;SDS011;66874;45.274;5.880;2023-04-16T17:36:53;10.10;;;2.67;;
77705;SDS011;66874;45.274;5.880;2023-04-16T17:39:18;5.43;;;2.67;;
77705;SDS011;66874;45.274;5.880;2023-04-16T17:41:44;3.67;;;2.67;;
77705;SDS011;66874;45.274;5.880;2023-04-16T17:44:10;6.50;;;3.08;;
77705;SDS011;66874;45.274;5.880;2023-04-16T17:46:35;6.20;;;4.80;;
77705;SDS011;66874;45.274;5.880;2023-04-16T17:49:00;4.85;;;2.70;;
77705;SDS011;66874;45.274;5.880;2023-04-16T17:51:26;4.68;;;3.15;;
77705;SDS011;66874;45.274;5.880;2023-04-16T17:53:51;5.22;;;3.88;;
77705;SDS011;66874;45.274;5.880;2023-04-16T17:56:17;3.92;;;2.45;;
77705;SDS011;66874;45.274;5.880;2023-04-16T17:58:42;3.10;;;2.80;;
77705;SDS011;66874;45.274;5.880;2023-04-16T18:01:08;6.05;;;2.90;;
77705;SDS011;66874;45.274;5.880;2023-04-16T18:03:33;4.20;;;2.95;;
77705;SDS011;66874;45.274;5.880;2023-04-16T18:05:59;4.00;;;2.83;;
77705;SDS011;66874;45.274;5.880;2023-04-16T18:08:25;3.72;;;2.45;;
77705;SDS011;66874;45.274;5.880;2023-04-16T18:10:50;3.45;;;3.00;;
77705;SDS011;66874;45.274;5.880;2023-04-16T18:13:16;3.95;;;2.78;;
77705;SDS011;66874;45.274;5.880;2023-04-16T18:15:42;3.55;;;2.42;;
77705;SDS011;66874;45.274;5.880;2023-04-16T18:18:07;6.10;;;2.75;;
77705;SDS011;66874;45.274;5.880;2023-04-16T18:20:33;6.90;;;2.83;;
77705;SDS011;66874;45.274;5.880;2023-04-16T18:22:59;4.80;;;3.08;;
77705;SDS011;66874;45.274;5.880;2023-04-16T18:25:24;3.03;;;2.63;;
77705;SDS011;66874;45.274;5.880;2023-04-16T18:27:49;3.95;;;2.67;;
77705;SDS011;66874;45.274;5.880;2023-04-16T18:30:15;4.93;;;3.20;;
77705;SDS011;66874;45.274;5.880;2023-04-16T18:32:42;3.97;;;2.83;;
77705;SDS011;66874;45.274;5.880;2023-04-16T18:35:08;8.75;;;2.65;;
77705;SDS011;66874;45.274;5.880;2023-04-16T18:37:34;4.63;;;2.90;;
77705;SDS011;66874;45.274;5.880;2023-04-16T18:39:59;4.15;;;3.17;;
77705;SDS011;66874;45.274;5.880;2023-04-16T18:42:25;3.47;;;3.08;;
77705;SDS011;66874;45.274;5.880;2023-04-16T18:44:52;7.03;;;3.47;;
77705;SDS011;66874;45.274;5.880;2023-04-16T18:47:18;4.82;;;2.95;;
77705;SDS011;66874;45.274;5.880;2023-04-16T18:49:43;4.63;;;3.03;;
77705;SDS011;66874;45.274;5.880;2023-04-16T18:52:09;4.22;;;3.00;;
77705;SDS011;66874;45.274;5.880;2023-04-16T18:54:34;6.05;;;3.38;;
77705;SDS011;66874;45.274;5.880;2023-04-16T18:57:00;5.85;;;2.97;;
77705;SDS011;66874;45.274;5.880;2023-04-16T18:59:26;7.50;;;3.97;;
77705;SDS011;66874;45.274;5.880;2023-04-16T19:01:52;6.60;;;3.67;;
77705;SDS011;66874;45.274;5.880;2023-04-16T19:04:17;7.18;;;3.20;;
77705;SDS011;66874;45.274;5.880;2023-04-16T19:06:43;6.43;;;3.25;;
77705;SDS011;66874;45.274;5.880;2023-04-16T19:09:09;4.40;;;3.03;;
77705;SDS011;66874;45.274;5.880;2023-04-16T19:11:34;3.83;;;2.95;;
77705;SDS011;66874;45.274;5.880;2023-04-16T19:14:00;5.68;;;3.40;;
77705;SDS011;66874;45.274;5.880;2023-04-16T19:16:27;4.78;;;3.60;;
77705;SDS011;66874;45.274;5.880;2023-04-16T19:18:53;4.63;;;3.45;;
77705;SDS011;66874;45.274;5.880;2023-04-16T19:21:18;4.75;;;3.38;;
77705;SDS011;66874;45.274;5.880;2023-04-16T19:23:44;3.80;;;3.38;;
77705;SDS011;66874;45.274;5.880;2023-04-16T19:26:09;5.22;;;3.90;;
77705;SDS011;66874;45.274;5.880;2023-04-16T19:28:35;4.72;;;3.83;;
77705;SDS011;66874;45.274;5.880;2023-04-16T19:31:02;5.07;;;3.65;;
77705;SDS011;66874;45.274;5.880;2023-04-16T19:33:28;5.80;;;3.67;;
77705;SDS011;66874;45.274;5.880;2023-04-16T19:35:53;6.93;;;3.47;;
77705;SDS011;66874;45.274;5.880;2023-04-16T19:38:19;5.55;;;3.45;;
77705;SDS011;66874;45.274;5.880;2023-04-16T19:40:44;5.45;;;3.70;;
77705;SDS011;66874;45.274;5.880;2023-04-16T19:43:10;6.32;;;3.75;;
77705;SDS011;66874;45.274;5.880;2023-04-16T19:45:43;7.20;;;4.20;;
77705;SDS011;66874;45.274;5.880;2023-04-16T19:48:09;3.10;;;2.70;;
77705;SDS011;66874;45.274;5.880;2023-04-16T19:50:37;5.85;;;3.97;;
77705;SDS011;66874;45.274;5.880;2023-04-16T19:53:04;9.02;;;3.25;;
77705;SDS011;66874;45.274;5.880;2023-04-16T19:55:29;5.63;;;3.45;;
77705;SDS011;66874;45.274;5.880;2023-04-16T19:57:54;6.30;;;3.67;;
77705;SDS011;66874;45.274;5.880;2023-04-16T20:00:21;4.57;;;2.90;;
77705;SDS011;66874;45.274;5.880;2023-04-16T20:02:47;5.72;;;3.30;;
77705;SDS011;66874;45.274;5.880;2023-04-16T20:05:12;5.03;;;3.22;;